Terminal Aerodrome Forecast
Issued by NWS Wilmington, OH

Current Version | Previous Version | Text Only | Print | Product List | Glossary On
Versions: 1 2 3 4 5 6 7 8 9 10 11 12 13 14 15 16 17 18 19 20 21
000 FTUS41 KILN 271700 TAFILN TAF KILN 271740Z 2718/2818 30012G20KT P6SM VCSH OVC025 TEMPO 2719/2722 5SM -SHSN BR OVC015 FM280000 29010KT P6SM VCSH OVC025 FM280900 24004KT P6SM SCT025 FM281400 20007KT P6SM SCT025 BKN100=

USA.gov is the U.S. government's official web portal to all federal, state and local government web resources and services.